sensor_id;sensor_type;location;lat;lon;timestamp;pressure;altitude;pressure_sealevel;temperature
18219;BMP180;9234;49.344;11.120;2023-06-10T00:00:24;97248.00;;;15.00
18219;BMP180;9234;49.344;11.120;2023-06-10T00:02:52;97241.00;;;14.90
18219;BMP180;9234;49.344;11.120;2023-06-10T00:05:21;97245.00;;;14.90
18219;BMP180;9234;49.344;11.120;2023-06-10T00:07:50;97254.00;;;14.90
18219;BMP180;9234;49.344;11.120;2023-06-10T00:10:23;97238.00;;;14.90
18219;BMP180;9234;49.344;11.120;2023-06-10T00:12:51;97241.00;;;14.80
18219;BMP180;9234;49.344;11.120;2023-06-10T00:15:19;97239.00;;;14.80
18219;BMP180;9234;49.344;11.120;2023-06-10T00:17:48;97236.00;;;14.80
18219;BMP180;9234;49.344;11.120;2023-06-10T00:20:16;97257.00;;;14.70
18219;BMP180;9234;49.344;11.120;2023-06-10T00:22:45;97248.00;;;14.70
18219;BMP180;9234;49.344;11.120;2023-06-10T00:25:15;97245.00;;;14.70
18219;BMP180;9234;49.344;11.120;2023-06-10T00:27:44;97253.00;;;14.70
18219;BMP180;9234;49.344;11.120;2023-06-10T00:30:13;97241.00;;;14.60
18219;BMP180;9234;49.344;11.120;2023-06-10T00:32:42;97256.00;;;14.60
18219;BMP180;9234;49.344;11.120;2023-06-10T00:35:10;97244.00;;;14.60
18219;BMP180;9234;49.344;11.120;2023-06-10T00:37:39;97255.00;;;14.50
18219;BMP180;9234;49.344;11.120;2023-06-10T00:40:09;97257.00;;;14.50
18219;BMP180;9234;49.344;11.120;2023-06-10T00:42:40;97242.00;;;14.50
18219;BMP180;9234;49.344;11.120;2023-06-10T00:45:09;97255.00;;;14.50
18219;BMP180;9234;49.344;11.120;2023-06-10T00:47:38;97258.00;;;14.40
18219;BMP180;9234;49.344;11.120;2023-06-10T00:50:07;97240.00;;;14.40
18219;BMP180;9234;49.344;11.120;2023-06-10T00:52:36;97245.00;;;14.40
18219;BMP180;9234;49.344;11.120;2023-06-10T00:55:06;97256.00;;;14.40
18219;BMP180;9234;49.344;11.120;2023-06-10T00:57:36;97249.00;;;14.30
18219;BMP180;9234;49.344;11.120;2023-06-10T01:00:09;97246.00;;;14.30
18219;BMP180;9234;49.344;11.120;2023-06-10T01:02:38;97241.00;;;14.30
18219;BMP180;9234;49.344;11.120;2023-06-10T01:05:07;97230.00;;;14.20
18219;BMP180;9234;49.344;11.120;2023-06-10T01:07:43;97232.00;;;14.20
18219;BMP180;9234;49.344;11.120;2023-06-10T01:10:20;97234.00;;;14.20
18219;BMP180;9234;49.344;11.120;2023-06-10T01:12:59;97241.00;;;14.10
18219;BMP180;9234;49.344;11.120;2023-06-10T01:15:31;97239.00;;;14.10
18219;BMP180;9234;49.344;11.120;2023-06-10T01:18:02;97235.00;;;14.10
18219;BMP180;9234;49.344;11.120;2023-06-10T01:20:32;97236.00;;;14.00
18219;BMP180;9234;49.344;11.120;2023-06-10T01:23:03;97245.00;;;14.00
18219;BMP180;9234;49.344;11.120;2023-06-10T01:25:32;97235.00;;;14.00
18219;BMP180;9234;49.344;11.120;2023-06-10T01:28:10;97243.00;;;14.00
18219;BMP180;9234;49.344;11.120;2023-06-10T01:30:48;97232.00;;;13.90
18219;BMP180;9234;49.344;11.120;2023-06-10T01:33:24;97228.00;;;13.90
18219;BMP180;9234;49.344;11.120;2023-06-10T01:35:58;97245.00;;;13.90
18219;BMP180;9234;49.344;11.120;2023-06-10T01:38:33;97241.00;;;13.90
18219;BMP180;9234;49.344;11.120;2023-06-10T01:41:05;97254.00;;;13.80
18219;BMP180;9234;49.344;11.120;2023-06-10T01:43:35;97255.00;;;13.80
18219;BMP180;9234;49.344;11.120;2023-06-10T01:46:06;97257.00;;;13.80
18219;BMP180;9234;49.344;11.120;2023-06-10T01:48:35;97254.00;;;13.80
18219;BMP180;9234;49.344;11.120;2023-06-10T01:51:03;97256.00;;;13.80
18219;BMP180;9234;49.344;11.120;2023-06-10T01:53:33;97254.00;;;13.80
18219;BMP180;9234;49.344;11.120;2023-06-10T01:56:02;97242.00;;;13.80
18219;BMP180;9234;49.344;11.120;2023-06-10T01:58:30;97255.00;;;13.70
18219;BMP180;9234;49.344;11.120;2023-06-10T02:00:58;97259.00;;;13.70
18219;BMP180;9234;49.344;11.120;2023-06-10T02:03:26;97255.00;;;13.70
18219;BMP180;9234;49.344;11.120;2023-06-10T02:05:56;97247.00;;;13.70
18219;BMP180;9234;49.344;11.120;2023-06-10T02:08:24;97231.00;;;13.70
18219;BMP180;9234;49.344;11.120;2023-06-10T02:10:54;97238.00;;;13.70
18219;BMP180;9234;49.344;11.120;2023-06-10T02:13:22;97236.00;;;13.70
18219;BMP180;9234;49.344;11.120;2023-06-10T02:15:53;97253.00;;;13.70
18219;BMP180;9234;49.344;11.120;2023-06-10T02:18:22;97225.00;;;13.70
18219;BMP180;9234;49.344;11.120;2023-06-10T02:20:50;97236.00;;;13.70
18219;BMP180;9234;49.344;11.120;2023-06-10T02:23:18;97246.00;;;13.70
18219;BMP180;9234;49.344;11.120;2023-06-10T02:25:47;97246.00;;;13.60
18219;BMP180;9234;49.344;11.120;2023-06-10T02:28:17;97242.00;;;13.60
18219;BMP180;9234;49.344;11.120;2023-06-10T02:30:45;97245.00;;;13.60
18219;BMP180;9234;49.344;11.120;2023-06-10T02:33:14;97244.00;;;13.60
18219;BMP180;9234;49.344;11.120;2023-06-10T02:35:44;97241.00;;;13.50
18219;BMP180;9234;49.344;11.120;2023-06-10T02:38:12;97241.00;;;13.50
18219;BMP180;9234;49.344;11.120;2023-06-10T02:40:40;97248.00;;;13.50
18219;BMP180;9234;49.344;11.120;2023-06-10T02:43:10;97248.00;;;13.50
18219;BMP180;9234;49.344;11.120;2023-06-10T02:45:39;97241.00;;;13.40
18219;BMP180;9234;49.344;11.120;2023-06-10T02:48:08;97247.00;;;13.40
18219;BMP180;9234;49.344;11.120;2023-06-10T02:50:37;97242.00;;;13.40
18219;BMP180;9234;49.344;11.120;2023-06-10T02:53:17;97249.00;;;13.40
18219;BMP180;9234;49.344;11.120;2023-06-10T02:55:51;97255.00;;;13.30
18219;BMP180;9234;49.344;11.120;2023-06-10T02:58:20;97263.00;;;13.30
18219;BMP180;9234;49.344;11.120;2023-06-10T03:00:51;97254.00;;;13.30
18219;BMP180;9234;49.344;11.120;2023-06-10T03:03:19;97249.00;;;13.20
18219;BMP180;9234;49.344;11.120;2023-06-10T03:05:59;97256.00;;;13.20
18219;BMP180;9234;49.344;11.120;2023-06-10T03:08:28;97241.00;;;13.20
18219;BMP180;9234;49.344;11.120;2023-06-10T03:10:59;97259.00;;;13.20
18219;BMP180;9234;49.344;11.120;2023-06-10T03:13:29;97243.00;;;13.10
18219;BMP180;9234;49.344;11.120;2023-06-10T03:15:59;97242.00;;;13.10
18219;BMP180;9234;49.344;11.120;2023-06-10T03:18:28;97254.00;;;13.10
18219;BMP180;9234;49.344;11.120;2023-06-10T03:20:56;97242.00;;;13.10
18219;BMP180;9234;49.344;11.120;2023-06-10T03:23:26;97255.00;;;13.10
18219;BMP180;9234;49.344;11.120;2023-06-10T03:25:56;97259.00;;;13.10
18219;BMP180;9234;49.344;11.120;2023-06-10T03:28:24;97267.00;;;13.10
18219;BMP180;9234;49.344;11.120;2023-06-10T03:30:53;97252.00;;;13.10
18219;BMP180;9234;49.344;11.120;2023-06-10T03:33:25;97270.00;;;13.10
18219;BMP180;9234;49.344;11.120;2023-06-10T03:35:53;97261.00;;;13.10
18219;BMP180;9234;49.344;11.120;2023-06-10T03:38:23;97245.00;;;13.10
18219;BMP180;9234;49.344;11.120;2023-06-10T03:40:52;97259.00;;;13.10
18219;BMP180;9234;49.344;11.120;2023-06-10T03:43:21;97255.00;;;13.10
18219;BMP180;9234;49.344;11.120;2023-06-10T03:45:51;97265.00;;;13.20
18219;BMP180;9234;49.344;11.120;2023-06-10T03:48:19;97255.00;;;13.20
18219;BMP180;9234;49.344;11.120;2023-06-10T03:50:52;97261.00;;;13.20
18219;BMP180;9234;49.344;11.120;2023-06-10T03:53:21;97271.00;;;13.20
18219;BMP180;9234;49.344;11.120;2023-06-10T03:55:51;97271.00;;;13.30
18219;BMP180;9234;49.344;11.120;2023-06-10T03:58:22;97266.00;;;13.30
18219;BMP180;9234;49.344;11.120;2023-06-10T04:00:52;97273.00;;;13.30
18219;BMP180;9234;49.344;11.120;2023-06-10T04:03:28;97275.00;;;13.30
18219;BMP180;9234;49.344;11.120;2023-06-10T04:05:58;97266.00;;;13.30
18219;BMP180;9234;49.344;11.120;2023-06-10T04:08:27;97262.00;;;13.30
18219;BMP180;9234;49.344;11.120;2023-06-10T04:10:56;97268.00;;;13.40
18219;BMP180;9234;49.344;11.120;2023-06-10T04:13:26;97253.00;;;13.40
18219;BMP180;9234;49.344;11.120;2023-06-10T04:15:57;97273.00;;;13.50
18219;BMP180;9234;49.344;11.120;2023-06-10T04:18:26;97262.00;;;13.60
18219;BMP180;9234;49.344;11.120;2023-06-10T04:20:59;97256.00;;;13.60
18219;BMP180;9234;49.344;11.120;2023-06-10T04:23:29;97254.00;;;13.70
18219;BMP180;9234;49.344;11.120;2023-06-10T04:25:57;97260.00;;;13.70
18219;BMP180;9234;49.344;11.120;2023-06-10T04:28:26;97264.00;;;13.80
18219;BMP180;9234;49.344;11.120;2023-06-10T04:30:55;97267.00;;;13.80
18219;BMP180;9234;49.344;11.120;2023-06-10T04:33:24;97274.00;;;13.90
18219;BMP180;9234;49.344;11.120;2023-06-10T04:35:53;97268.00;;;13.90
18219;BMP180;9234;49.344;11.120;2023-06-10T04:38:25;97265.00;;;14.00
18219;BMP180;9234;49.344;11.120;2023-06-10T04:40:53;97263.00;;;14.10
18219;BMP180;9234;49.344;11.120;2023-06-10T04:43:22;97273.00;;;14.10
18219;BMP180;9234;49.344;11.120;2023-06-10T04:45:51;97283.00;;;14.20
18219;BMP180;9234;49.344;11.120;2023-06-10T04:48:19;97268.00;;;14.20
18219;BMP180;9234;49.344;11.120;2023-06-10T04:50:47;97276.00;;;14.30
18219;BMP180;9234;49.344;11.120;2023-06-10T04:53:16;97264.00;;;14.40
18219;BMP180;9234;49.344;11.120;2023-06-10T04:55:47;97262.00;;;14.50
18219;BMP180;9234;49.344;11.120;2023-06-10T04:58:16;97264.00;;;14.60
18219;BMP180;9234;49.344;11.120;2023-06-10T05:00:44;97262.00;;;14.70
18219;BMP180;9234;49.344;11.120;2023-06-10T05:03:12;97269.00;;;14.80
18219;BMP180;9234;49.344;11.120;2023-06-10T05:05:41;97270.00;;;14.90
18219;BMP180;9234;49.344;11.120;2023-06-10T05:08:09;97275.00;;;15.00
18219;BMP180;9234;49.344;11.120;2023-06-10T05:10:37;97278.00;;;15.10
18219;BMP180;9234;49.344;11.120;2023-06-10T05:13:07;97267.00;;;15.20
18219;BMP180;9234;49.344;11.120;2023-06-10T05:15:35;97278.00;;;15.30
18219;BMP180;9234;49.344;11.120;2023-06-10T05:18:04;97278.00;;;15.40
18219;BMP180;9234;49.344;11.120;2023-06-10T05:20:32;97279.00;;;15.50
18219;BMP180;9234;49.344;11.120;2023-06-10T05:23:01;97278.00;;;15.60
18219;BMP180;9234;49.344;11.120;2023-06-10T05:25:31;97276.00;;;15.70
18219;BMP180;9234;49.344;11.120;2023-06-10T05:27:59;97279.00;;;15.80
18219;BMP180;9234;49.344;11.120;2023-06-10T05:30:29;97284.00;;;15.90
18219;BMP180;9234;49.344;11.120;2023-06-10T05:32:57;97269.00;;;16.10
18219;BMP180;9234;49.344;11.120;2023-06-10T05:35:26;97271.00;;;16.20
18219;BMP180;9234;49.344;11.120;2023-06-10T05:37:54;97279.00;;;16.30
18219;BMP180;9234;49.344;11.120;2023-06-10T05:40:22;97284.00;;;16.40
18219;BMP180;9234;49.344;11.120;2023-06-10T05:42:50;97283.00;;;16.50
18219;BMP180;9234;49.344;11.120;2023-06-10T05:45:19;97287.00;;;16.60
18219;BMP180;9234;49.344;11.120;2023-06-10T05:47:48;97280.00;;;16.80
18219;BMP180;9234;49.344;11.120;2023-06-10T05:50:17;97289.00;;;16.90
18219;BMP180;9234;49.344;11.120;2023-06-10T05:52:46;97279.00;;;17.00
18219;BMP180;9234;49.344;11.120;2023-06-10T05:55:14;97290.00;;;17.10
18219;BMP180;9234;49.344;11.120;2023-06-10T05:57:42;97298.00;;;17.20
18219;BMP180;9234;49.344;11.120;2023-06-10T06:00:12;97293.00;;;17.30
18219;BMP180;9234;49.344;11.120;2023-06-10T06:02:41;97281.00;;;17.50
18219;BMP180;9234;49.344;11.120;2023-06-10T06:05:11;97296.00;;;17.60
18219;BMP180;9234;49.344;11.120;2023-06-10T06:07:40;97294.00;;;17.70
18219;BMP180;9234;49.344;11.120;2023-06-10T06:10:08;97285.00;;;17.80
18219;BMP180;9234;49.344;11.120;2023-06-10T06:12:37;97282.00;;;18.00
18219;BMP180;9234;49.344;11.120;2023-06-10T06:15:07;97291.00;;;18.10
18219;BMP180;9234;49.344;11.120;2023-06-10T06:17:36;97290.00;;;18.30
18219;BMP180;9234;49.344;11.120;2023-06-10T06:20:06;97283.00;;;18.40
18219;BMP180;9234;49.344;11.120;2023-06-10T06:22:36;97286.00;;;18.60
18219;BMP180;9234;49.344;11.120;2023-06-10T06:25:06;97294.00;;;18.70
18219;BMP180;9234;49.344;11.120;2023-06-10T06:27:35;97286.00;;;18.90
18219;BMP180;9234;49.344;11.120;2023-06-10T06:30:04;97293.00;;;19.00
18219;BMP180;9234;49.344;11.120;2023-06-10T06:32:33;97299.00;;;19.20
18219;BMP180;9234;49.344;11.120;2023-06-10T06:35:02;97284.00;;;19.40
18219;BMP180;9234;49.344;11.120;2023-06-10T06:37:31;97298.00;;;19.50
18219;BMP180;9234;49.344;11.120;2023-06-10T06:40:15;97286.00;;;19.70
18219;BMP180;9234;49.344;11.120;2023-06-10T06:42:44;97297.00;;;19.80
18219;BMP180;9234;49.344;11.120;2023-06-10T06:45:29;97295.00;;;20.00
18219;BMP180;9234;49.344;11.120;2023-06-10T06:47:57;97288.00;;;20.20
18219;BMP180;9234;49.344;11.120;2023-06-10T06:50:25;97286.00;;;20.30
18219;BMP180;9234;49.344;11.120;2023-06-10T06:52:54;97293.00;;;20.50
18219;BMP180;9234;49.344;11.120;2023-06-10T06:55:23;97284.00;;;20.60
18219;BMP180;9234;49.344;11.120;2023-06-10T06:57:51;97300.00;;;20.80
18219;BMP180;9234;49.344;11.120;2023-06-10T07:00:20;97285.00;;;20.90
18219;BMP180;9234;49.344;11.120;2023-06-10T07:02:49;97288.00;;;21.00
18219;BMP180;9234;49.344;11.120;2023-06-10T07:05:17;97282.00;;;21.20
18219;BMP180;9234;49.344;11.120;2023-06-10T07:07:45;97286.00;;;21.30
18219;BMP180;9234;49.344;11.120;2023-06-10T07:10:14;97282.00;;;21.40
18219;BMP180;9234;49.344;11.120;2023-06-10T07:12:43;97291.00;;;21.50
18219;BMP180;9234;49.344;11.120;2023-06-10T07:15:12;97280.00;;;21.60
18219;BMP180;9234;49.344;11.120;2023-06-10T07:17:40;97284.00;;;21.70
18219;BMP180;9234;49.344;11.120;2023-06-10T07:20:11;97293.00;;;21.90
18219;BMP180;9234;49.344;11.120;2023-06-10T07:22:39;97295.00;;;22.00
18219;BMP180;9234;49.344;11.120;2023-06-10T07:25:08;97287.00;;;22.10
18219;BMP180;9234;49.344;11.120;2023-06-10T07:27:37;97288.00;;;22.20
18219;BMP180;9234;49.344;11.120;2023-06-10T07:30:08;97288.00;;;22.30
18219;BMP180;9234;49.344;11.120;2023-06-10T07:32:38;97283.00;;;22.40
18219;BMP180;9234;49.344;11.120;2023-06-10T07:35:09;97287.00;;;22.50
18219;BMP180;9234;49.344;11.120;2023-06-10T07:37:38;97297.00;;;22.70
18219;BMP180;9234;49.344;11.120;2023-06-10T07:40:08;97289.00;;;22.80
18219;BMP180;9234;49.344;11.120;2023-06-10T07:42:36;97282.00;;;22.90
18219;BMP180;9234;49.344;11.120;2023-06-10T07:45:07;97289.00;;;23.10
18219;BMP180;9234;49.344;11.120;2023-06-10T07:47:36;97278.00;;;23.20
18219;BMP180;9234;49.344;11.120;2023-06-10T07:50:05;97283.00;;;23.30
18219;BMP180;9234;49.344;11.120;2023-06-10T07:52:34;97289.00;;;23.50
18219;BMP180;9234;49.344;11.120;2023-06-10T07:55:02;97286.00;;;23.60
18219;BMP180;9234;49.344;11.120;2023-06-10T07:57:30;97292.00;;;23.80
18219;BMP180;9234;49.344;11.120;2023-06-10T08:00:02;97280.00;;;23.90
18219;BMP180;9234;49.344;11.120;2023-06-10T08:02:39;97284.00;;;24.00
18219;BMP180;9234;49.344;11.120;2023-06-10T08:05:08;97289.00;;;24.10
18219;BMP180;9234;49.344;11.120;2023-06-10T08:07:37;97285.00;;;24.20
18219;BMP180;9234;49.344;11.120;2023-06-10T08:10:07;97284.00;;;24.30
18219;BMP180;9234;49.344;11.120;2023-06-10T08:12:36;97283.00;;;24.40
18219;BMP180;9234;49.344;11.120;2023-06-10T08:15:06;97283.00;;;24.60
18219;BMP180;9234;49.344;11.120;2023-06-10T08:17:34;97288.00;;;24.70
18219;BMP180;9234;49.344;11.120;2023-06-10T08:20:06;97282.00;;;24.80
18219;BMP180;9234;49.344;11.120;2023-06-10T08:22:34;97279.00;;;25.00
18219;BMP180;9234;49.344;11.120;2023-06-10T08:25:04;97275.00;;;25.10
18219;BMP180;9234;49.344;11.120;2023-06-10T08:27:32;97276.00;;;25.20
18219;BMP180;9234;49.344;11.120;2023-06-10T08:30:01;97285.00;;;25.40
18219;BMP180;9234;49.344;11.120;2023-06-10T08:32:30;97281.00;;;25.50
18219;BMP180;9234;49.344;11.120;2023-06-10T08:34:58;97276.00;;;25.70
18219;BMP180;9234;49.344;11.120;2023-06-10T08:37:29;97282.00;;;25.80
18219;BMP180;9234;49.344;11.120;2023-06-10T08:39:57;97277.00;;;26.00
18219;BMP180;9234;49.344;11.120;2023-06-10T08:42:33;97276.00;;;26.20
18219;BMP180;9234;49.344;11.120;2023-06-10T08:45:03;97269.00;;;26.40
18219;BMP180;9234;49.344;11.120;2023-06-10T08:47:35;97276.00;;;26.60
18219;BMP180;9234;49.344;11.120;2023-06-10T08:50:05;97286.00;;;26.50
18219;BMP180;9234;49.344;11.120;2023-06-10T08:52:44;97277.00;;;26.40
18219;BMP180;9234;49.344;11.120;2023-06-10T08:55:17;97288.00;;;26.60
18219;BMP180;9234;49.344;11.120;2023-06-10T08:57:46;97285.00;;;26.70
18219;BMP180;9234;49.344;11.120;2023-06-10T09:00:16;97272.00;;;26.90
18219;BMP180;9234;49.344;11.120;2023-06-10T09:02:46;97288.00;;;27.00
18219;BMP180;9234;49.344;11.120;2023-06-10T09:05:16;97282.00;;;27.20
18219;BMP180;9234;49.344;11.120;2023-06-10T09:07:47;97280.00;;;27.40
18219;BMP180;9234;49.344;11.120;2023-06-10T09:10:16;97287.00;;;27.80
18219;BMP180;9234;49.344;11.120;2023-06-10T09:12:44;97283.00;;;28.10
18219;BMP180;9234;49.344;11.120;2023-06-10T09:15:13;97284.00;;;28.40
18219;BMP180;9234;49.344;11.120;2023-06-10T09:17:44;97290.00;;;28.40
18219;BMP180;9234;49.344;11.120;2023-06-10T09:20:12;97284.00;;;28.20
18219;BMP180;9234;49.344;11.120;2023-06-10T09:22:42;97283.00;;;28.00
18219;BMP180;9234;49.344;11.120;2023-06-10T09:25:13;97283.00;;;27.80
18219;BMP180;9234;49.344;11.120;2023-06-10T09:27:45;97288.00;;;27.60
18219;BMP180;9234;49.344;11.120;2023-06-10T09:30:25;97285.00;;;27.70
18219;BMP180;9234;49.344;11.120;2023-06-10T09:32:55;97273.00;;;28.00
18219;BMP180;9234;49.344;11.120;2023-06-10T09:35:25;97288.00;;;28.30
18219;BMP180;9234;49.344;11.120;2023-06-10T09:37:55;97288.00;;;28.40
18219;BMP180;9234;49.344;11.120;2023-06-10T09:40:26;97282.00;;;28.60
18219;BMP180;9234;49.344;11.120;2023-06-10T09:42:59;97289.00;;;28.70
18219;BMP180;9234;49.344;11.120;2023-06-10T09:45:30;97287.00;;;28.80
18219;BMP180;9234;49.344;11.120;2023-06-10T09:48:00;97286.00;;;28.90
18219;BMP180;9234;49.344;11.120;2023-06-10T09:50:33;97299.00;;;28.70
18219;BMP180;9234;49.344;11.120;2023-06-10T09:53:06;97290.00;;;28.60
18219;BMP180;9234;49.344;11.120;2023-06-10T09:55:37;97289.00;;;28.70
18219;BMP180;9234;49.344;11.120;2023-06-10T09:58:06;97292.00;;;28.80
18219;BMP180;9234;49.344;11.120;2023-06-10T10:00:36;97297.00;;;28.80
18219;BMP180;9234;49.344;11.120;2023-06-10T10:03:04;97293.00;;;28.70
18219;BMP180;9234;49.344;11.120;2023-06-10T10:05:34;97285.00;;;28.60
18219;BMP180;9234;49.344;11.120;2023-06-10T10:08:02;97288.00;;;28.50
18219;BMP180;9234;49.344;11.120;2023-06-10T10:10:31;97285.00;;;28.40
18219;BMP180;9234;49.344;11.120;2023-06-10T10:13:01;97296.00;;;28.50
18219;BMP180;9234;49.344;11.120;2023-06-10T10:15:33;97291.00;;;28.80
18219;BMP180;9234;49.344;11.120;2023-06-10T10:18:09;97294.00;;;29.00
18219;BMP180;9234;49.344;11.120;2023-06-10T10:20:50;97289.00;;;29.10
18219;BMP180;9234;49.344;11.120;2023-06-10T10:23:26;97292.00;;;29.30
18219;BMP180;9234;49.344;11.120;2023-06-10T10:26:00;97297.00;;;29.30
18219;BMP180;9234;49.344;11.120;2023-06-10T10:28:43;97294.00;;;29.20
18219;BMP180;9234;49.344;11.120;2023-06-10T10:31:18;97291.00;;;29.20
18219;BMP180;9234;49.344;11.120;2023-06-10T10:33:55;97288.00;;;29.30
18219;BMP180;9234;49.344;11.120;2023-06-10T10:36:27;97289.00;;;29.20
18219;BMP180;9234;49.344;11.120;2023-06-10T10:38:57;97291.00;;;29.20
18219;BMP180;9234;49.344;11.120;2023-06-10T10:41:26;97282.00;;;29.10
18219;BMP180;9234;49.344;11.120;2023-06-10T10:43:57;97290.00;;;28.90
18219;BMP180;9234;49.344;11.120;2023-06-10T10:46:27;97294.00;;;28.80
18219;BMP180;9234;49.344;11.120;2023-06-10T10:48:57;97295.00;;;28.70
18219;BMP180;9234;49.344;11.120;2023-06-10T10:51:25;97297.00;;;28.80
18219;BMP180;9234;49.344;11.120;2023-06-10T10:54:12;97289.00;;;28.80
18219;BMP180;9234;49.344;11.120;2023-06-10T10:57:12;97295.00;;;28.80
18219;BMP180;9234;49.344;11.120;2023-06-10T10:59:58;97303.00;;;28.90
18219;BMP180;9234;49.344;11.120;2023-06-10T11:02:41;97290.00;;;28.90
18219;BMP180;9234;49.344;11.120;2023-06-10T11:05:14;97294.00;;;28.90
18219;BMP180;9234;49.344;11.120;2023-06-10T11:07:53;97287.00;;;28.80
18219;BMP180;9234;49.344;11.120;2023-06-10T11:10:30;97291.00;;;28.80
18219;BMP180;9234;49.344;11.120;2023-06-10T11:13:00;97290.00;;;28.80
18219;BMP180;9234;49.344;11.120;2023-06-10T11:15:30;97292.00;;;29.00
18219;BMP180;9234;49.344;11.120;2023-06-10T11:18:14;97289.00;;;29.50
18219;BMP180;9234;49.344;11.120;2023-06-10T11:20:57;97281.00;;;29.70
18219;BMP180;9234;49.344;11.120;2023-06-10T11:23:41;97282.00;;;30.00
18219;BMP180;9234;49.344;11.120;2023-06-10T11:26:19;97277.00;;;30.60
18219;BMP180;9234;49.344;11.120;2023-06-10T11:29:09;97276.00;;;31.10
18219;BMP180;9234;49.344;11.120;2023-06-10T11:31:49;97272.00;;;31.50
18219;BMP180;9234;49.344;11.120;2023-06-10T11:34:23;97267.00;;;31.50
18219;BMP180;9234;49.344;11.120;2023-06-10T11:36:54;97273.00;;;31.30
18219;BMP180;9234;49.344;11.120;2023-06-10T11:39:23;97267.00;;;31.00
18219;BMP180;9234;49.344;11.120;2023-06-10T11:41:54;97274.00;;;31.00
18219;BMP180;9234;49.344;11.120;2023-06-10T11:44:28;97265.00;;;31.30
18219;BMP180;9234;49.344;11.120;2023-06-10T11:47:00;97267.00;;;31.80
18219;BMP180;9234;49.344;11.120;2023-06-10T11:49:29;97270.00;;;32.00
18219;BMP180;9234;49.344;11.120;2023-06-10T11:51:57;97257.00;;;32.10
18219;BMP180;9234;49.344;11.120;2023-06-10T11:54:25;97256.00;;;31.90
18219;BMP180;9234;49.344;11.120;2023-06-10T11:56:58;97261.00;;;31.70
18219;BMP180;9234;49.344;11.120;2023-06-10T11:59:27;97265.00;;;31.40
18219;BMP180;9234;49.344;11.120;2023-06-10T12:01:56;97258.00;;;31.30
18219;BMP180;9234;49.344;11.120;2023-06-10T12:04:26;97257.00;;;31.30
18219;BMP180;9234;49.344;11.120;2023-06-10T12:06:54;97261.00;;;31.20
18219;BMP180;9234;49.344;11.120;2023-06-10T12:09:25;97253.00;;;31.00
18219;BMP180;9234;49.344;11.120;2023-06-10T12:11:57;97261.00;;;30.70
18219;BMP180;9234;49.344;11.120;2023-06-10T12:14:54;97248.00;;;30.40
18219;BMP180;9234;49.344;11.120;2023-06-10T12:17:36;97260.00;;;30.10
18219;BMP180;9234;49.344;11.120;2023-06-10T12:20:23;97252.00;;;30.00
18219;BMP180;9234;49.344;11.120;2023-06-10T12:22:52;97240.00;;;30.30
18219;BMP180;9234;49.344;11.120;2023-06-10T12:25:25;97243.00;;;31.00
18219;BMP180;9234;49.344;11.120;2023-06-10T12:27:56;97252.00;;;31.60
18219;BMP180;9234;49.344;11.120;2023-06-10T12:30:26;97247.00;;;32.30
18219;BMP180;9234;49.344;11.120;2023-06-10T12:32:56;97243.00;;;32.70
18219;BMP180;9234;49.344;11.120;2023-06-10T12:35:28;97240.00;;;33.20
18219;BMP180;9234;49.344;11.120;2023-06-10T12:37:58;97240.00;;;33.70
18219;BMP180;9234;49.344;11.120;2023-06-10T12:40:29;97243.00;;;34.00
18219;BMP180;9234;49.344;11.120;2023-06-10T12:42:59;97233.00;;;33.90
18219;BMP180;9234;49.344;11.120;2023-06-10T12:45:28;97231.00;;;33.50
18219;BMP180;9234;49.344;11.120;2023-06-10T12:48:09;97232.00;;;33.10
18219;BMP180;9234;49.344;11.120;2023-06-10T12:50:41;97241.00;;;32.70
18219;BMP180;9234;49.344;11.120;2023-06-10T12:53:11;97243.00;;;32.30
18219;BMP180;9234;49.344;11.120;2023-06-10T12:55:40;97232.00;;;31.90
18219;BMP180;9234;49.344;11.120;2023-06-10T12:58:08;97240.00;;;31.60
18219;BMP180;9234;49.344;11.120;2023-06-10T13:00:36;97233.00;;;31.30
18219;BMP180;9234;49.344;11.120;2023-06-10T13:03:08;97236.00;;;31.40
18219;BMP180;9234;49.344;11.120;2023-06-10T13:05:38;97245.00;;;31.80
18219;BMP180;9234;49.344;11.120;2023-06-10T13:08:08;97241.00;;;31.80
18219;BMP180;9234;49.344;11.120;2023-06-10T13:10:38;97227.00;;;31.60
18219;BMP180;9234;49.344;11.120;2023-06-10T13:13:06;97230.00;;;31.30
18219;BMP180;9234;49.344;11.120;2023-06-10T13:15:37;97233.00;;;30.90
18219;BMP180;9234;49.344;11.120;2023-06-10T13:18:10;97233.00;;;30.70
18219;BMP180;9234;49.344;11.120;2023-06-10T13:20:40;97231.00;;;30.50
18219;BMP180;9234;49.344;11.120;2023-06-10T13:23:08;97218.00;;;30.50
18219;BMP180;9234;49.344;11.120;2023-06-10T13:25:36;97230.00;;;30.30
18219;BMP180;9234;49.344;11.120;2023-06-10T13:28:05;97227.00;;;30.10
18219;BMP180;9234;49.344;11.120;2023-06-10T13:30:33;97233.00;;;30.10
18219;BMP180;9234;49.344;11.120;2023-06-10T13:33:01;97224.00;;;31.20
18219;BMP180;9234;49.344;11.120;2023-06-10T13:35:30;97222.00;;;32.90
18219;BMP180;9234;49.344;11.120;2023-06-10T13:38:00;97218.00;;;34.30
18219;BMP180;9234;49.344;11.120;2023-06-10T13:40:28;97220.00;;;35.10
18219;BMP180;9234;49.344;11.120;2023-06-10T13:42:56;97216.00;;;35.20
18219;BMP180;9234;49.344;11.120;2023-06-10T13:45:26;97219.00;;;34.60
18219;BMP180;9234;49.344;11.120;2023-06-10T13:47:55;97218.00;;;33.90
18219;BMP180;9234;49.344;11.120;2023-06-10T13:50:23;97217.00;;;33.20
18219;BMP180;9234;49.344;11.120;2023-06-10T13:53:02;97223.00;;;32.70
18219;BMP180;9234;49.344;11.120;2023-06-10T13:55:30;97216.00;;;32.50
18219;BMP180;9234;49.344;11.120;2023-06-10T13:57:59;97213.00;;;32.20
18219;BMP180;9234;49.344;11.120;2023-06-10T14:00:28;97218.00;;;32.00
18219;BMP180;9234;49.344;11.120;2023-06-10T14:02:56;97207.00;;;31.80
18219;BMP180;9234;49.344;11.120;2023-06-10T14:05:25;97212.00;;;31.60
18219;BMP180;9234;49.344;11.120;2023-06-10T14:07:56;97220.00;;;31.70
18219;BMP180;9234;49.344;11.120;2023-06-10T14:10:29;97218.00;;;31.80
18219;BMP180;9234;49.344;11.120;2023-06-10T14:12:57;97214.00;;;32.30
18219;BMP180;9234;49.344;11.120;2023-06-10T14:15:25;97219.00;;;33.40
18219;BMP180;9234;49.344;11.120;2023-06-10T14:17:54;97219.00;;;34.20
18219;BMP180;9234;49.344;11.120;2023-06-10T14:20:22;97221.00;;;34.30
18219;BMP180;9234;49.344;11.120;2023-06-10T14:22:52;97226.00;;;34.00
18219;BMP180;9234;49.344;11.120;2023-06-10T14:25:21;97221.00;;;33.60
18219;BMP180;9234;49.344;11.120;2023-06-10T14:27:51;97222.00;;;33.20